Time;durP1;ratioP1;P1;durP2;ratioP2;P2;SDS_P1;SDS_P2;PMS_P1;PMS_P2;Temp;Humidity;BMP_temperature;BMP_pressure;BME280_temperature;BME280_humidity;BME280_pressure;Samples;Min_cycle;Max_cycle;Signal;HPM_P1;HPM_P2
2022/09/03 00:02:07;;;;;;;9.60;6.93;;;;;;;18.78;100.00;94846.94;5052482;28;20445;-81
2022/09/03 00:04:39;;;;;;;10.73;6.60;;;;;;;18.81;100.00;94848.44;5051853;28;20500;-81
2022/09/03 00:07:13;;;;;;;8.00;7.20;;;;;;;18.81;100.00;94848.44;5052153;28;20482;-80
2022/09/03 00:09:46;;;;;;;6.87;6.13;;;;;;;18.78;99.74;94854.09;5052172;28;20456;-81
2022/09/03 00:12:18;;;;;;;11.53;7.30;;;;;;;18.62;98.85;94851.59;5051964;28;20442;-81
2022/09/03 00:14:50;;;;;;;12.53;7.30;;;;;;;18.60;99.25;94856.25;5051789;28;20445;-80
2022/09/03 00:17:22;;;;;;;8.50;6.87;;;;;;;18.58;99.00;94857.25;5051786;28;20445;-81
2022/09/03 00:19:55;;;;;;;11.93;7.53;;;;;;;18.51;99.77;94855.50;5051996;28;20438;-80
2022/09/03 00:22:27;;;;;;;8.00;7.20;;;;;;;18.49;99.55;94862.81;5052488;28;20449;-81
2022/09/03 00:24:59;;;;;;;7.13;6.00;;;;;;;18.48;100.00;94853.19;5051794;28;20481;-81
2022/09/03 00:27:28;;;;;;;9.73;7.20;;;;;;;18.45;99.72;94856.19;5051599;28;20529;-81
2022/09/03 00:30:00;;;;;;;8.33;7.00;;;;;;;18.46;100.00;94860.50;5051635;28;20437;-80
2022/09/03 00:32:37;;;;;;;9.13;7.17;;;;;;;18.46;100.00;94852.53;5051717;28;20445;-81
2022/09/03 00:35:10;;;;;;;7.37;6.40;;;;;;;18.41;99.82;94855.75;5051554;28;20461;-81
2022/09/03 00:37:37;;;;;;;9.23;6.20;;;;;;;18.32;99.52;94850.69;5051782;28;20453;-81
2022/09/03 00:40:09;;;;;;;8.80;7.90;;;;;;;18.28;99.71;94852.88;5032766;28;20449;-81
2022/09/03 00:42:45;;;;;;;9.47;6.77;;;;;;;18.36;100.00;94846.66;5017930;28;20936;-81
2022/09/03 00:45:27;;;;;;;7.70;7.00;;;;;;;18.34;100.00;94844.19;5051857;28;20492;-81
2022/09/03 00:48:09;;;;;;;9.63;6.30;;;;;;;18.21;99.30;94843.94;5051718;28;20532;-81
2022/09/03 00:50:46;;;;;;;10.00;7.47;;;;;;;18.22;99.81;94845.63;5051536;28;20448;-80
2022/09/03 00:53:21;;;;;;;9.90;7.57;;;;;;;18.22;99.94;94850.94;5051452;28;20457;-80
2022/09/03 00:55:57;;;;;;;12.93;7.77;;;;;;;18.21;100.00;94850.09;5019666;28;20452;-80
2022/09/03 00:58:48;;;;;;;7.70;6.90;;;;;;;18.27;99.73;94851.22;5052612;28;20448;-81
2022/09/03 01:01:20;;;;;;;9.00;7.20;;;;;;;18.26;99.72;94861.03;5034119;28;20450;-81
2022/09/03 01:03:57;;;;;;;12.70;7.77;;;;;;;18.30;99.91;94850.84;5056824;28;20925;-81
2022/09/03 01:06:32;;;;;;;13.50;7.93;;;;;;;18.34;99.73;94851.31;5056605;28;20460;-81
2022/09/03 01:09:10;;;;;;;8.07;6.90;;;;;;;18.37;99.93;94840.34;5055555;28;20444;-81
2022/09/03 01:11:48;;;;;;;9.90;7.90;;;;;;;18.50;100.00;94848.50;5055342;28;20441;-80
2022/09/03 01:14:26;;;;;;;10.13;7.40;;;;;;;18.54;99.17;94845.34;5055137;28;20460;-80
2022/09/03 01:16:58;;;;;;;12.13;8.40;;;;;;;18.59;98.90;94847.47;5055087;28;20473;-80
2022/09/03 01:19:47;;;;;;;8.90;8.00;;;;;;;18.64;98.71;94845.09;5055012;28;20450;-81
2022/09/03 01:22:38;;;;;;;9.77;6.97;;;;;;;18.68;98.66;94842.91;5054993;28;20441;-80
2022/09/03 01:25:32;;;;;;;9.03;7.80;;;;;;;18.67;98.85;94841.25;5053658;28;21062;-81
2022/09/03 01:28:19;;;;;;;8.43;7.50;;;;;;;18.54;97.79;94845.34;5054606;28;20434;-80
2022/09/03 01:30:55;;;;;;;9.97;7.93;;;;;;;18.38;98.37;94849.97;5054592;28;20461;-81
2022/09/03 01:33:28;;;;;;;10.83;7.10;;;;;;;18.34;98.27;94851.31;5054957;28;20477;-81
2022/09/03 01:36:02;;;;;;;8.63;7.73;;;;;;;18.22;98.83;94856.25;5054811;28;20449;-80
2022/09/03 01:38:37;;;;;;;14.90;7.43;;;;;;;18.14;99.20;94866.91;5054279;28;20449;-80
2022/09/03 01:44:08;;;;;;;10.43;7.93;;;;;;;18.03;99.88;94872.63;5054478;28;20849;-81
2022/09/03 01:46:39;;;;;;;8.73;7.20;;;;;;;18.02;100.00;94873.63;5054673;28;20488;-81
2022/09/03 01:49:15;;;;;;;14.57;8.30;;;;;;;17.95;100.00;94876.19;5054502;28;20453;-80
2022/09/03 01:51:44;;;;;;;8.97;7.50;;;;;;;17.87;100.00;94866.41;5019169;28;20995;-81
2022/09/03 01:54:38;;;;;;;19.73;7.50;;;;;;;17.82;100.00;94868.75;5054650;28;20456;-81
2022/09/03 01:57:27;;;;;;;8.50;7.57;;;;;;;17.75;100.00;94867.00;5053965;28;20449;-80
2022/09/03 02:00:01;;;;;;;10.90;8.27;;;;;;;17.63;100.00;94871.81;5054117;28;20453;-81
2022/09/03 02:02:29;;;;;;;10.07;7.27;;;;;;;17.65;100.00;94869.84;5054462;28;20441;-81
2022/09/03 02:04:59;;;;;;;12.10;7.90;;;;;;;17.58;100.00;94863.56;5054069;28;20491;-80
2022/09/03 02:07:32;;;;;;;8.60;7.77;;;;;;;17.54;100.00;94862.25;5054303;28;20468;-81
2022/09/03 02:09:59;;;;;;;10.07;7.63;;;;;;;17.48;100.00;94860.28;5055782;28;20499;-80
2022/09/03 02:12:28;;;;;;;8.37;7.40;;;;;;;17.52;100.00;94856.28;5054900;28;21105;-81
2022/09/03 02:14:56;;;;;;;9.03;7.33;;;;;;;17.56;100.00;94861.06;5055067;28;20939;-80
2022/09/03 02:17:23;;;;;;;9.20;7.90;;;;;;;17.56;100.00;94861.06;5054230;28;20472;-80
2022/09/03 02:19:50;;;;;;;10.77;8.07;;;;;;;17.63;100.00;94871.81;5053874;28;20445;-80
2022/09/03 02:22:17;;;;;;;9.73;7.00;;;;;;;17.63;100.00;94877.94;5053717;28;20449;-80
2022/09/03 02:24:44;;;;;;;7.93;7.00;;;;;;;17.69;100.00;94870.34;5053832;28;20492;-80
2022/09/03 02:27:11;;;;;;;8.50;7.70;;;;;;;17.67;100.00;94881.13;5053904;28;20476;-81
2022/09/03 02:29:38;;;;;;;8.47;7.20;;;;;;;17.70;100.00;94877.31;5053440;28;20433;-81
2022/09/03 02:32:06;;;;;;;11.03;8.37;;;;;;;17.75;100.00;94882.91;5018483;28;20477;-81
2022/09/03 02:34:33;;;;;;;8.87;7.97;;;;;;;17.76;100.00;94877.44;5053383;28;20470;-81
2022/09/03 02:37:00;;;;;;;8.40;7.60;;;;;;;17.72;100.00;94884.09;5053564;28;20527;-81
2022/09/03 02:39:27;;;;;;;7.83;6.87;;;;;;;17.81;100.00;94874.25;5053723;28;20817;-80
2022/09/03 02:41:57;;;;;;;7.73;7.03;;;;;;;17.82;100.00;94876.72;5018595;28;20822;-81
2022/09/03 02:44:30;;;;;;;9.33;8.40;;;;;;;17.77;99.63;94889.69;5018147;28;20433;-80
2022/09/03 02:46:59;;;;;;;8.63;7.60;;;;;;;17.77;99.72;94884.41;5053678;28;20456;-80
2022/09/03 02:49:28;;;;;;;8.23;6.83;;;;;;;17.72;99.91;94885.91;5053284;28;20438;-80
2022/09/03 02:51:59;;;;;;;13.00;7.67;;;;;;;17.74;99.97;94889.22;5053583;28;20481;-82
2022/09/03 02:54:27;;;;;;;8.10;7.30;;;;;;;17.81;99.80;94887.53;5053049;28;20442;-80
2022/09/03 02:56:54;;;;;;;7.10;6.40;;;;;;;17.79;100.00;94893.00;5053473;28;20473;-81
2022/09/03 02:59:22;;;;;;;7.83;7.03;;;;;;;17.80;99.47;94897.31;5053110;28;20445;-80
2022/09/03 03:01:49;;;;;;;6.90;6.20;;;;;;;17.80;99.21;94893.84;5053009;28;20438;-80
2022/09/03 03:04:16;;;;;;;8.43;7.53;;;;;;;17.84;99.71;94903.94;5053212;28;20465;-80
2022/09/03 03:06:44;;;;;;;8.03;7.20;;;;;;;17.92;99.50;94908.34;5052787;28;20486;-80
2022/09/03 03:09:11;;;;;;;9.30;6.30;;;;;;;17.91;98.52;94901.41;5053389;28;20437;-80
2022/09/03 03:11:39;;;;;;;9.20;7.10;;;;;;;17.88;98.53;94894.59;5052953;28;20462;-80
2022/09/03 03:14:06;;;;;;;7.70;6.97;;;;;;;17.86;98.02;94899.28;5052871;28;20532;-80
2022/09/03 03:16:32;;;;;;;9.40;7.73;;;;;;;17.88;98.18;94905.22;5052623;28;20450;-80
2022/09/03 03:18:59;;;;;;;7.80;7.07;;;;;;;17.92;98.12;94897.72;5049749;28;20441;-79
2022/09/03 03:21:26;;;;;;;11.40;7.47;;;;;;;17.93;98.61;94900.25;5051980;28;20485;-80
2022/09/03 03:23:54;;;;;;;9.03;7.20;;;;;;;17.96;97.83;94893.75;5051042;28;21002;-80
2022/09/03 03:26:23;;;;;;;10.30;7.63;;;;;;;17.97;98.04;94894.59;5049706;28;20490;-80
2022/09/03 03:28:55;;;;;;;10.90;8.97;;;;;;;18.02;98.80;94885.09;5051678;28;20860;-80
2022/09/03 03:31:22;;;;;;;11.60;7.87;;;;;;;17.99;97.66;94882.78;5051596;28;20461;-81
2022/09/03 03:33:52;;;;;;;8.97;7.87;;;;;;;18.00;97.86;94888.91;5052557;28;20489;-81
2022/09/03 03:36:19;;;;;;;8.53;7.63;;;;;;;17.94;97.53;94891.28;5051472;28;20485;-80
2022/09/03 03:38:46;;;;;;;8.60;7.43;;;;;;;17.87;97.75;94895.63;5051457;28;20449;-80
2022/09/03 03:41:17;;;;;;;10.97;8.20;;;;;;;17.91;97.89;94896.09;5051076;28;20448;-80
2022/09/03 03:43:44;;;;;;;8.80;7.60;;;;;;;17.88;98.07;94894.59;5050351;28;20492;-81
2022/09/03 03:46:12;;;;;;;9.17;7.77;;;;;;;17.83;98.04;94889.00;5050846;28;20501;-80
2022/09/03 03:48:39;;;;;;;11.97;7.33;;;;;;;17.83;97.83;94889.00;5051027;28;20442;-80
2022/09/03 03:51:07;;;;;;;8.90;7.93;;;;;;;17.84;98.28;94895.13;5051416;28;20442;-80
2022/09/03 03:53:36;;;;;;;11.20;7.97;;;;;;;17.87;98.53;94889.47;5051603;28;20454;-80
2022/09/03 03:56:06;;;;;;;9.80;8.20;;;;;;;17.92;98.85;94892.44;5050241;28;20818;-81
2022/09/03 03:58:34;;;;;;;8.17;7.37;;;;;;;17.98;98.09;94890.94;5016193;28;20860;-80
2022/09/03 04:01:06;;;;;;;8.00;7.20;;;;;;;18.08;98.84;94896.81;5045912;28;20477;-79
2022/09/03 04:03:33;;;;;;;11.00;8.63;;;;;;;18.12;98.15;94900.78;5050025;28;20998;-80
2022/09/03 04:06:01;;;;;;;9.93;8.63;;;;;;;18.10;97.43;94902.78;5050292;28;20535;-80
2022/09/03 04:08:29;;;;;;;8.50;7.60;;;;;;;18.16;97.51;94900.25;5050282;28;20438;-80
2022/09/03 04:11:00;;;;;;;9.43;8.23;;;;;;;18.14;97.23;94904.09;5050758;28;20445;-80
2022/09/03 04:13:29;;;;;;;9.50;7.97;;;;;;;18.11;97.23;94901.78;5052109;28;20452;-80
2022/09/03 04:16:02;;;;;;;11.70;7.87;;;;;;;18.15;97.34;94898.59;5050870;28;20795;-80
2022/09/03 04:18:29;;;;;;;9.60;7.93;;;;;;;18.18;96.81;94908.03;5049570;28;20446;-80
2022/09/03 04:20:59;;;;;;;9.30;8.00;;;;;;;18.25;97.18;94893.91;5049846;28;20445;-80
2022/09/03 04:23:27;;;;;;;8.53;7.00;;;;;;;18.34;97.27;94904.47;5016872;28;20465;-80
2022/09/03 04:25:54;;;;;;;13.20;7.73;;;;;;;18.39;96.66;94902.91;5014461;28;20478;-80
2022/09/03 04:28:21;;;;;;;8.30;7.40;;;;;;;18.33;96.02;94895.66;5049867;28;20445;-81
2022/09/03 04:30:48;;;;;;;9.83;8.80;;;;;;;18.25;96.28;94895.72;5050931;28;20434;-80
2022/09/03 04:33:16;;;;;;;12.90;11.23;;;;;;;18.30;96.24;94906.66;5049277;28;20474;-80
2022/09/03 04:35:43;;;;;;;11.60;9.30;;;;;;;18.32;96.49;94899.31;5050005;28;20449;-80
2022/09/03 04:38:10;;;;;;;10.67;8.03;;;;;;;18.37;96.60;94904.94;5053391;28;20449;-80
2022/09/03 04:40:37;;;;;;;13.13;8.47;;;;;;;18.43;96.88;94911.34;5052872;28;20450;-80
2022/09/03 04:43:05;;;;;;;8.63;7.57;;;;;;;18.40;96.10;94909.88;5054160;28;20875;-80
2022/09/03 04:45:32;;;;;;;9.10;6.93;;;;;;;18.36;95.81;94921.88;5052237;28;20489;-80
2022/09/03 04:47:59;;;;;;;7.97;7.27;;;;;;;18.33;96.10;94921.41;5053634;28;20446;-80
2022/09/03 04:50:28;;;;;;;10.50;8.10;;;;;;;18.34;96.10;94923.88;5054306;28;20475;-81
2022/09/03 04:52:57;;;;;;;10.00;7.73;;;;;;;18.32;96.37;94923.22;5054068;28;20982;-80
2022/09/03 04:55:24;;;;;;;9.33;8.33;;;;;;;18.35;96.23;94930.03;5019715;28;20441;-80
2022/09/03 04:57:51;;;;;;;10.87;9.07;;;;;;;18.32;96.49;94933.84;5053449;28;20457;-80
2022/09/03 05:00:19;;;;;;;9.37;7.70;;;;;;;18.26;96.48;94939.88;5054086;28;20937;-80
2022/09/03 05:02:48;;;;;;;7.93;7.13;;;;;;;18.20;96.97;94941.38;5055151;28;20495;-80
2022/09/03 05:05:15;;;;;;;10.17;7.30;;;;;;;18.07;97.17;94943.81;5053649;28;20437;-80
2022/09/03 05:07:43;;;;;;;7.70;6.63;;;;;;;18.07;97.49;94945.63;5053509;28;20447;-80
2022/09/03 05:10:15;;;;;;;16.80;7.43;;;;;;;18.00;97.41;94950.00;5053655;28;20865;-80
2022/09/03 05:12:42;;;;;;;8.23;7.10;;;;;;;17.95;97.71;94953.16;5035756;28;20503;-80
2022/09/03 05:15:09;;;;;;;8.00;6.97;;;;;;;17.90;97.63;94953.66;5055111;28;20438;-80
2022/09/03 05:17:37;;;;;;;8.30;7.50;;;;;;;17.85;97.43;94942.75;5036220;28;20478;-80
2022/09/03 05:20:05;;;;;;;9.17;8.30;;;;;;;17.76;97.86;94941.13;5055222;28;20499;-80
2022/09/03 05:22:32;;;;;;;9.17;8.20;;;;;;;17.76;97.66;94946.44;5055387;28;20665;-80
2022/09/03 05:25:00;;;;;;;7.90;7.10;;;;;;;17.74;98.14;94950.28;5055026;28;20955;-80
2022/09/03 05:27:27;;;;;;;8.17;7.37;;;;;;;17.74;98.23;94953.75;5054564;28;20991;-80
2022/09/03 05:29:54;;;;;;;9.20;8.00;;;;;;;17.68;97.80;94948.31;5053971;28;20437;-80
2022/09/03 05:32:20;;;;;;;7.50;6.80;;;;;;;17.66;98.90;94951.13;5053120;28;20453;-80
2022/09/03 05:34:47;;;;;;;11.90;8.07;;;;;;;17.71;98.51;94946.13;5055240;28;20450;-80
2022/09/03 05:37:14;;;;;;;11.40;6.17;;;;;;;17.72;99.06;94950.44;5054516;28;20450;-80
2022/09/03 05:39:41;;;;;;;9.70;7.37;;;;;;;17.72;98.77;94955.75;5054383;28;20441;-80
2022/09/03 05:42:09;;;;;;;9.87;8.33;;;;;;;17.77;99.34;94963.19;5054337;28;20485;-80
2022/09/03 05:44:36;;;;;;;8.80;7.83;;;;;;;17.76;99.42;94962.38;5054310;28;20652;-80
2022/09/03 05:47:03;;;;;;;9.60;7.17;;;;;;;17.74;99.13;94971.50;5054089;28;20493;-80
2022/09/03 05:49:30;;;;;;;9.10;7.80;;;;;;;17.66;99.50;94975.00;5054028;28;20454;-80
2022/09/03 05:51:57;;;;;;;10.80;8.00;;;;;;;17.63;100.00;94972.66;5055112;28;20442;-79
2022/09/03 05:54:25;;;;;;;9.32;8.10;;;;;;;17.81;100.00;94978.59;5054712;28;20447;-80
2022/09/03 05:56:51;;;;;;;8.37;7.40;;;;;;;17.79;98.88;94980.59;5020973;28;20207;-80
2022/09/03 05:59:20;;;;;;;7.93;7.13;;;;;;;17.85;98.39;94969.28;5055304;28;20461;-79
2022/09/03 06:01:49;;;;;;;7.70;6.93;;;;;;;17.91;98.33;94973.91;5055879;28;20442;-80
2022/09/03 06:04:16;;;;;;;9.97;8.53;;;;;;;17.89;98.34;94983.88;5055380;28;20955;-82
2022/09/03 06:06:45;;;;;;;9.80;8.03;;;;;;;17.98;98.22;94984.69;5055585;28;20493;-82
2022/09/03 06:09:14;;;;;;;8.40;7.17;;;;;;;18.07;98.30;94986.28;5055903;28;20517;-81
2022/09/03 06:11:42;;;;;;;11.27;7.83;;;;;;;18.09;97.30;94989.59;5055681;28;20449;-81
2022/09/03 06:14:10;;;;;;;11.63;6.80;;;;;;;18.15;96.99;94994.22;5056220;28;20476;-82
2022/09/03 06:16:40;;;;;;;8.83;6.80;;;;;;;18.25;96.86;94994.00;5055728;28;20457;-86
2022/09/03 06:19:09;;;;;;;8.13;7.33;;;;;;;18.33;95.95;94993.97;5055595;28;20908;-86
2022/09/03 06:21:38;;;;;;;6.33;5.73;;;;;;;18.46;96.08;94988.88;5055630;28;20456;-82
2022/09/03 06:24:06;;;;;;;7.73;6.87;;;;;;;18.53;94.92;94983.72;5055207;28;21005;-81
2022/09/03 06:26:32;;;;;;;12.40;8.40;;;;;;;18.61;94.25;94981.00;5020035;28;20477;-81
2022/09/03 06:28:59;;;;;;;6.93;6.33;;;;;;;18.57;93.56;94993.81;5019942;28;20442;-80
2022/09/03 06:31:26;;;;;;;9.03;6.30;;;;;;;18.57;93.55;94996.47;5055669;28;20793;-81
2022/09/03 06:33:55;;;;;;;8.70;7.80;;;;;;;18.49;92.88;94991.19;5052785;28;20474;-80
2022/09/03 06:36:23;;;;;;;10.23;7.90;;;;;;;18.48;93.62;94994.03;5052908;28;20461;-80
2022/09/03 06:38:52;;;;;;;12.43;7.73;;;;;;;18.56;94.36;94997.47;5054955;28;20448;-81
2022/09/03 06:41:23;;;;;;;7.83;7.07;;;;;;;18.58;92.13;94989.31;5048110;28;20447;-81
2022/09/03 06:43:52;;;;;;;9.20;7.30;;;;;;;18.48;92.07;95002.81;5042321;28;20984;-82
2022/09/03 06:46:21;;;;;;;9.60;8.13;;;;;;;18.43;92.42;94999.88;5035007;28;20548;-81
2022/09/03 06:48:49;;;;;;;9.87;7.20;;;;;;;18.34;92.82;94992.13;5039946;28;20504;-81
2022/09/03 06:51:20;;;;;;;8.83;7.03;;;;;;;18.19;93.36;94992.84;5054837;28;20450;-79
2022/09/03 06:53:48;;;;;;;9.57;7.83;;;;;;;18.27;94.07;94987.53;5054405;28;20442;-79
2022/09/03 06:56:17;;;;;;;8.70;7.80;;;;;;;18.27;93.52;94989.34;5054320;28;20444;-79
2022/09/03 06:58:46;;;;;;;9.70;8.30;;;;;;;18.32;93.61;94991.47;5054520;28;20211;-82
2022/09/03 07:01:16;;;;;;;8.57;7.60;;;;;;;18.38;93.70;94986.28;5054274;28;20535;-81
2022/09/03 07:03:45;;;;;;;9.20;7.50;;;;;;;18.48;93.03;94994.84;5052901;28;20519;-80
2022/09/03 07:06:14;;;;;;;8.93;8.03;;;;;;;18.56;92.70;94999.31;5034901;28;20486;-81
2022/09/03 07:08:42;;;;;;;10.10;8.23;;;;;;;18.63;92.34;94996.78;5048776;28;20508;-81
2022/09/03 07:11:11;;;;;;;8.67;7.50;;;;;;;18.89;91.85;95002.59;5040982;28;20442;-82
2022/09/03 07:13:39;;;;;;;10.43;8.10;;;;;;;19.24;90.35;95002.97;5054376;28;20921;-83
2022/09/03 07:16:09;;;;;;;9.17;7.30;;;;;;;19.63;88.17;94995.59;5055387;28;20537;-83
2022/09/03 07:18:36;;;;;;;10.40;7.33;;;;;;;20.03;86.65;95002.31;5051473;28;20453;-84
2022/09/03 07:21:24;;;;;;;10.70;6.60;;;;;;;20.41;85.56;95008.34;5050394;28;21075;-82
2022/09/03 07:23:54;;;;;;;10.60;7.97;;;;;;;20.58;83.17;95018.78;5012431;28;20465;-80
2022/09/03 07:26:23;;;;;;;8.57;7.77;;;;;;;20.73;83.06;95009.72;5012529;28;20486;-82
2022/09/03 07:28:52;;;;;;;8.10;7.30;;;;;;;21.05;83.12;95020.91;5024075;28;20954;-83
2022/09/03 07:31:24;;;;;;;11.67;8.00;;;;;;;21.18;81.72;95017.53;5017934;28;20808;-83
2022/09/03 07:37:35;;;;;;;7.57;6.80;;;;;;;21.57;79.14;95028.56;5023126;28;20426;-82
2022/09/03 07:40:03;;;;;;;5.70;5.20;;;;;;;21.59;77.94;95037.19;5018523;28;20454;-81
2022/09/03 07:42:31;;;;;;;7.53;6.83;;;;;;;21.44;78.20;95038.31;5031724;28;20489;-82
2022/09/03 07:44:58;;;;;;;11.60;7.20;;;;;;;21.40;78.39;95032.53;5016657;28;20466;-82
2022/09/03 07:47:26;;;;;;;8.73;7.83;;;;;;;21.58;78.74;95030.22;5031337;28;20486;-82
2022/09/03 07:49:53;;;;;;;9.90;8.50;;;;;;;21.56;78.32;95039.44;5043822;28;21316;-83
2022/09/03 07:52:20;;;;;;;16.07;8.93;;;;;;;21.60;78.52;95038.84;5054116;28;20860;-81
2022/09/03 07:54:47;;;;;;;9.80;7.80;;;;;;;21.52;78.96;95039.00;5044972;28;20454;-84
2022/09/03 07:57:15;;;;;;;8.13;7.03;;;;;;;21.76;78.91;95045.75;5045357;28;20532;-84
2022/09/03 07:59:42;;;;;;;10.17;7.30;;;;;;;21.88;76.90;95046.03;5036710;28;20447;-84
2022/09/03 08:02:09;;;;;;;8.33;7.53;;;;;;;22.20;76.77;95034.72;5052261;28;20549;-84
2022/09/03 08:04:36;;;;;;;9.90;7.10;;;;;;;22.61;76.46;95043.78;5047200;28;20466;-81
2022/09/03 08:07:04;;;;;;;7.77;6.83;;;;;;;22.60;73.69;95042.13;5044615;28;20488;-84
2022/09/03 08:09:31;;;;;;;8.50;7.13;;;;;;;22.53;74.89;95055.44;5044052;28;20932;-84
2022/09/03 08:11:58;;;;;;;7.40;6.80;;;;;;;22.44;76.05;95048.63;5051716;28;20517;-84
2022/09/03 08:14:29;;;;;;;7.80;7.00;;;;;;;22.46;76.39;95049.25;5053184;28;20541;-84
2022/09/03 08:20:17;;;;;;;10.53;6.60;;;;;;;22.49;72.97;95051.53;5052093;28;20460;-85
2022/09/03 08:22:44;;;;;;;6.30;5.80;;;;;;;22.01;74.33;95046.13;5052775;28;20441;-84
2022/09/03 08:25:11;;;;;;;6.90;6.20;;;;;;;21.85;75.05;95051.75;5052555;28;20920;-84
2022/09/03 08:27:38;;;;;;;8.17;7.37;;;;;;;21.82;76.47;95046.81;5052487;28;20470;-83
2022/09/03 08:30:10;;;;;;;6.80;6.03;;;;;;;21.72;77.52;95039.16;5052210;28;20434;-84
2022/09/03 08:32:37;;;;;;;7.50;6.70;;;;;;;21.50;76.47;95042.88;5052499;28;20485;-85
2022/09/03 08:35:05;;;;;;;26.93;7.10;;;;;;;21.55;78.08;95045.78;5052510;28;20449;-84
2022/09/03 08:37:33;;;;;;;6.80;6.20;;;;;;;21.90;77.93;95038.63;5053602;28;20441;-84
2022/09/03 08:40:00;;;;;;;8.47;6.87;;;;;;;22.24;76.87;95049.34;5017802;28;20445;-84
2022/09/03 08:42:45;;;;;;;8.17;7.43;;;;;;;22.15;74.36;95044.38;5053019;28;20527;-83
2022/09/03 08:45:16;;;;;;;10.30;7.37;;;;;;;22.20;76.28;95040.06;5053294;28;20481;-85
2022/09/03 08:47:48;;;;;;;9.57;6.70;;;;;;;22.25;75.04;95037.63;5053042;28;20825;-85
2022/09/03 08:53:42;;;;;;;6.37;5.87;;;;;;;22.69;74.72;95032.88;5035367;28;20429;-84
2022/09/03 08:56:14;;;;;;;8.73;6.37;;;;;;;22.75;74.20;95038.25;5053451;28;20444;-85
2022/09/03 08:58:42;;;;;;;7.00;6.40;;;;;;;22.56;72.80;95036.34;5053387;28;21071;-87
2022/09/03 09:01:23;;;;;;;6.57;6.00;;;;;;;22.46;73.92;95043.91;5053205;28;20441;-84
2022/09/03 09:04:00;;;;;;;6.53;5.93;;;;;;;22.48;74.99;95034.66;5044609;28;20570;-84
2022/09/03 09:06:35;;;;;;;6.83;6.20;;;;;;;22.58;74.68;95034.28;5052340;28;20437;-84
2022/09/03 09:09:17;;;;;;;8.10;7.30;;;;;;;22.48;74.48;95041.84;5044796;28;20476;-85
2022/09/03 09:11:55;;;;;;;8.40;7.60;;;;;;;22.50;76.25;95042.47;5053005;28;20476;-84
2022/09/03 09:14:30;;;;;;;7.30;6.60;;;;;;;22.30;73.53;95045.09;5052512;28;20968;-83
2022/09/03 09:17:08;;;;;;;6.70;6.10;;;;;;;22.41;74.52;95041.00;5052878;28;20441;-84
2022/09/03 09:19:44;;;;;;;7.80;6.03;;;;;;;22.54;75.42;95041.88;5052587;28;20465;-83
2022/09/03 09:22:18;;;;;;;7.60;6.90;;;;;;;22.89;74.93;95049.03;5052591;28;20441;-83
2022/09/03 09:24:47;;;;;;;7.67;6.83;;;;;;;22.95;73.36;95040.19;5021620;28;20437;-84
2022/09/03 09:27:16;;;;;;;6.70;6.00;;;;;;;22.81;72.81;95045.50;5056164;28;20488;-84
2022/09/03 09:29:48;;;;;;;8.43;6.80;;;;;;;22.71;73.32;95047.72;5056013;28;20535;-84
2022/09/03 09:32:19;;;;;;;7.97;7.13;;;;;;;22.45;73.68;95047.59;5056770;28;20521;-84
2022/09/03 09:34:46;;;;;;;6.73;6.03;;;;;;;22.43;73.21;95049.66;5056519;28;20454;-84
2022/09/03 09:37:14;;;;;;;7.70;7.00;;;;;;;22.41;73.88;95044.50;5056301;28;20441;-84
2022/09/03 09:39:53;;;;;;;18.20;8.17;;;;;;;22.68;80.50;95048.09;5055973;28;20441;-83
2022/09/03 09:42:22;;;;;;;8.87;6.80;;;;;;;22.82;74.10;95047.16;5055802;28;20438;-84
2022/09/03 09:44:49;;;;;;;8.67;7.87;;;;;;;22.79;74.69;95042.16;5056287;28;20441;-84
2022/09/03 09:47:25;;;;;;;8.60;7.80;;;;;;;22.85;72.63;95045.94;5056181;28;20477;-84
2022/09/03 09:50:16;;;;;;;10.43;8.00;;;;;;;23.05;75.44;95052.16;5055844;28;20437;-84
2022/09/03 09:52:44;;;;;;;8.13;7.33;;;;;;;23.04;74.46;95052.34;5056103;28;20443;-84
2022/09/03 09:55:17;;;;;;;7.90;7.20;;;;;;;23.05;74.27;95054.00;5056202;28;20522;-82
2022/09/03 09:57:44;;;;;;;11.23;8.53;;;;;;;23.26;76.10;95061.88;5056231;28;20481;-84
2022/09/03 10:00:14;;;;;;;7.40;6.70;;;;;;;23.39;70.49;95056.50;5020758;28;20450;-83
2022/09/03 10:02:49;;;;;;;7.90;7.20;;;;;;;23.76;74.97;95062.34;5055657;28;20838;-83
2022/09/03 10:05:22;;;;;;;14.67;8.07;;;;;;;24.06;70.44;95068.91;5055942;28;20433;-84
2022/09/03 10:07:57;;;;;;;10.53;8.63;;;;;;;24.29;70.23;95064.97;5055677;28;20488;-83
2022/09/03 10:10:25;;;;;;;8.40;7.60;;;;;;;24.39;71.23;95062.66;5033716;28;20489;-83
2022/09/03 10:13:00;;;;;;;9.73;7.97;;;;;;;24.47;69.66;95065.13;5035823;28;20443;-82
2022/09/03 10:15:35;;;;;;;7.77;7.17;;;;;;;24.57;67.90;95062.78;5035303;28;20920;-83
2022/09/03 10:18:11;;;;;;;8.00;7.30;;;;;;;24.76;67.87;95057.56;5035782;28;20427;-83
2022/09/03 10:20:46;;;;;;;11.97;8.23;;;;;;;24.72;69.42;95049.13;5035564;28;20967;-82
2022/09/03 10:23:18;;;;;;;7.93;7.23;;;;;;;24.78;67.59;95055.50;5035681;28;20446;-82
2022/09/03 10:26:01;;;;;;;8.00;7.20;;;;;;;24.80;66.69;95050.72;5035453;28;20446;-83
2022/09/03 10:28:30;;;;;;;9.37;8.47;;;;;;;24.83;69.89;95042.25;5035574;28;20865;-83
2022/09/03 10:31:14;;;;;;;10.60;7.57;;;;;;;24.83;67.88;95042.25;5040349;28;20437;-83
2022/09/03 10:33:49;;;;;;;8.80;7.90;;;;;;;24.79;68.43;95039.16;5055627;28;20492;-83
2022/09/03 10:36:19;;;;;;;7.47;6.77;;;;;;;24.80;68.01;95040.00;5054778;28;20780;-84
2022/09/03 10:38:52;;;;;;;7.27;6.67;;;;;;;24.85;68.35;95040.16;5055238;28;20484;-84
2022/09/03 10:41:35;;;;;;;8.93;7.60;;;;;;;24.79;67.55;95041.03;5054873;28;20430;-84
2022/09/03 10:44:34;;;;;;;8.50;7.47;;;;;;;24.80;68.92;95043.50;5054811;28;20437;-83
2022/09/03 10:47:12;;;;;;;8.27;7.47;;;;;;;24.60;69.55;95032.88;4993169;28;20456;-84
2022/09/03 10:49:56;;;;;;;7.93;7.27;;;;;;;24.60;74.60;95032.06;4963160;28;20448;-85
2022/09/03 10:52:31;;;;;;;8.47;7.67;;;;;;;24.81;73.45;95030.91;4993276;28;20467;-84
2022/09/03 10:55:13;;;;;;;9.50;7.57;;;;;;;24.86;76.92;95031.06;4993204;28;20863;-84
2022/09/03 10:57:48;;;;;;;14.77;9.30;;;;;;;24.94;77.60;95029.00;4993292;28;20428;-84
2022/09/03 11:00:18;;;;;;;47.67;18.33;;;;;;;25.17;77.40;95027.66;4993361;28;20446;-84
2022/09/03 11:03:09;;;;;;;55.50;20.17;;;;;;;24.85;75.39;95030.25;4995277;28;20971;-84
2022/09/03 11:05:41;;;;;;;42.90;15.43;;;;;;;24.99;77.06;95026.50;4994110;28;20452;-84
2022/09/03 11:08:16;;;;;;;10.37;7.50;;;;;;;25.06;71.08;95029.13;4992949;28;20476;-84
2022/09/03 11:10:48;;;;;;;8.83;7.90;;;;;;;25.13;67.80;95031.78;4993292;28;20539;-84
2022/09/03 11:13:20;;;;;;;8.10;7.30;;;;;;;25.19;68.09;95025.56;4992970;28;20433;-84
2022/09/03 11:16:11;;;;;;;7.80;7.00;;;;;;;25.01;66.95;95039.72;4992911;28;20436;-85
2022/09/03 11:18:44;;;;;;;7.80;7.10;;;;;;;24.92;65.49;95031.06;4992901;28;20567;-83
2022/09/03 11:21:15;;;;;;;7.40;6.70;;;;;;;24.85;66.19;95040.16;4992723;28;20444;-83
2022/09/03 11:23:45;;;;;;;8.00;7.20;;;;;;;24.81;75.94;95022.84;5016478;28;20430;-83
2022/09/03 11:26:15;;;;;;;6.90;6.30;;;;;;;24.53;66.20;95040.09;5054324;28;20435;-83
2022/09/03 11:28:50;;;;;;;7.20;6.60;;;;;;;24.37;66.37;95027.19;5054078;28;20990;-83
2022/09/03 11:31:24;;;;;;;7.07;6.37;;;;;;;24.34;67.57;95032.97;5053820;28;20445;-84
2022/09/03 11:33:56;;;;;;;6.77;6.10;;;;;;;24.37;68.12;95027.19;5034572;28;20481;-83
2022/09/03 11:36:30;;;;;;;7.03;6.43;;;;;;;24.34;67.11;95032.97;5032111;28;20443;-82
2022/09/03 11:38:59;;;;;;;6.47;5.93;;;;;;;24.28;65.87;95031.13;5033889;28;20450;-83
2022/09/03 11:41:27;;;;;;;5.83;5.23;;;;;;;24.32;67.04;95027.81;5033701;28;20435;-83
2022/09/03 11:43:54;;;;;;;6.57;6.07;;;;;;;24.35;72.60;95027.41;5033927;28;20451;-84
2022/09/03 11:46:30;;;;;;;7.50;6.80;;;;;;;24.65;72.52;95025.00;5033945;28;20512;-84
2022/09/03 11:49:09;;;;;;;6.17;5.67;;;;;;;24.92;66.52;95030.25;5034003;28;20872;-84
2022/09/03 11:51:40;;;;;;;7.13;6.53;;;;;;;25.10;66.15;95035.72;5034111;28;20438;-84
2022/09/03 11:54:24;;;;;;;5.80;5.40;;;;;;;25.06;62.98;95036.38;5033746;28;20453;-81
2022/09/03 11:57:03;;;;;;;7.00;6.30;;;;;;;25.01;64.29;95034.34;5033722;28;20505;-84
2022/09/03 11:59:30;;;;;;;7.77;6.17;;;;;;;24.95;65.05;95024.44;5033404;28;20469;-83
2022/09/03 12:02:00;;;;;;;5.97;5.47;;;;;;;24.80;64.62;95037.31;5051695;28;20461;-82